sensor_id;sensor_type;location;lat;lon;timestamp;pressure;altitude;pressure_sealevel;temperature;humidity
39613;BME280;25303;48.896;13.342;2024-02-26T00:02:09;91318.59;;;4.53;56.47
39613;BME280;25303;48.896;13.342;2024-02-26T00:12:13;91304.75;;;4.56;56.25
39613;BME280;25303;48.896;13.342;2024-02-26T00:22:16;91293.72;;;4.72;55.93
39613;BME280;25303;48.896;13.342;2024-02-26T00:32:21;91276.69;;;4.64;55.61
39613;BME280;25303;48.896;13.342;2024-02-26T00:42:24;91268.09;;;4.57;55.63
39613;BME280;25303;48.896;13.342;2024-02-26T00:52:28;91259.34;;;4.43;54.81
39613;BME280;25303;48.896;13.342;2024-02-26T01:02:31;91251.72;;;4.51;54.26
39613;BME280;25303;48.896;13.342;2024-02-26T01:12:36;91239.75;;;4.60;53.77
39613;BME280;25303;48.896;13.342;2024-02-26T01:22:39;91230.34;;;4.61;53.68
39613;BME280;25303;48.896;13.342;2024-02-26T01:32:44;91226.19;;;4.60;53.06
39613;BME280;25303;48.896;13.342;2024-02-26T01:42:47;91223.81;;;4.66;52.73
39613;BME280;25303;48.896;13.342;2024-02-26T01:52:53;91229.38;;;4.78;52.07
39613;BME280;25303;48.896;13.342;2024-02-26T02:02:56;91237.78;;;4.87;51.30
39613;BME280;25303;48.896;13.342;2024-02-26T02:13:01;91230.97;;;4.88;50.92
39613;BME280;25303;48.896;13.342;2024-02-26T02:23:05;91232.84;;;4.94;50.77
39613;BME280;25303;48.896;13.342;2024-02-26T02:33:08;91220.34;;;5.15;49.85
39613;BME280;25303;48.896;13.342;2024-02-26T02:43:15;91221.00;;;5.09;48.79
39613;BME280;25303;48.896;13.342;2024-02-26T02:53:18;91220.91;;;4.86;50.15
39613;BME280;25303;48.896;13.342;2024-02-26T03:03:22;91218.31;;;5.02;49.22
39613;BME280;25303;48.896;13.342;2024-02-26T03:13:26;91210.03;;;5.00;49.44
39613;BME280;25303;48.896;13.342;2024-02-26T03:23:30;91205.47;;;4.88;49.34
39613;BME280;25303;48.896;13.342;2024-02-26T03:33:34;91198.09;;;4.93;48.96
39613;BME280;25303;48.896;13.342;2024-02-26T03:43:39;91192.53;;;4.89;49.15
39613;BME280;25303;48.896;13.342;2024-02-26T03:53:42;91203.38;;;4.91;49.02
39613;BME280;25303;48.896;13.342;2024-02-26T04:03:46;91195.84;;;4.98;48.71
39613;BME280;25303;48.896;13.342;2024-02-26T04:13:49;91204.19;;;4.83;47.92
39613;BME280;25303;48.896;13.342;2024-02-26T04:23:55;91200.81;;;4.83;48.35
39613;BME280;25303;48.896;13.342;2024-02-26T04:33:58;91208.00;;;4.79;48.05
39613;BME280;25303;48.896;13.342;2024-02-26T04:44:03;91209.94;;;4.77;48.10
39613;BME280;25303;48.896;13.342;2024-02-26T04:54:06;91210.38;;;4.81;47.09
39613;BME280;25303;48.896;13.342;2024-02-26T05:04:11;91206.06;;;4.90;47.00
39613;BME280;25303;48.896;13.342;2024-02-26T05:14:14;91194.44;;;4.95;46.66
39613;BME280;25303;48.896;13.342;2024-02-26T05:24:18;91199.38;;;4.97;46.28
39613;BME280;25303;48.896;13.342;2024-02-26T05:34:24;91190.44;;;4.93;46.88
39613;BME280;25303;48.896;13.342;2024-02-26T05:44:29;91200.78;;;4.99;46.25
39613;BME280;25303;48.896;13.342;2024-02-26T05:54:32;91200.41;;;5.19;45.85
39613;BME280;25303;48.896;13.342;2024-02-26T06:04:36;91216.03;;;5.16;45.58
39613;BME280;25303;48.896;13.342;2024-02-26T06:14:41;91216.66;;;5.26;45.81
39613;BME280;25303;48.896;13.342;2024-02-26T06:24:46;91227.34;;;5.22;44.27
39613;BME280;25303;48.896;13.342;2024-02-26T06:34:48;91235.56;;;5.40;45.13
39613;BME280;25303;48.896;13.342;2024-02-26T06:44:53;91242.88;;;5.52;46.09
39613;BME280;25303;48.896;13.342;2024-02-26T06:54:56;91251.06;;;5.39;46.97
39613;BME280;25303;48.896;13.342;2024-02-26T07:05:00;91255.00;;;5.50;46.90
39613;BME280;25303;48.896;13.342;2024-02-26T07:15:06;91252.84;;;5.70;46.93
39613;BME280;25303;48.896;13.342;2024-02-26T07:25:11;91243.63;;;6.00;46.90
39613;BME280;25303;48.896;13.342;2024-02-26T07:35:15;91248.00;;;6.15;47.36
39613;BME280;25303;48.896;13.342;2024-02-26T07:45:20;91251.41;;;6.30;46.80
39613;BME280;25303;48.896;13.342;2024-02-26T07:55:23;91254.38;;;6.57;46.84
39613;BME280;25303;48.896;13.342;2024-02-26T08:05:28;91274.41;;;6.92;45.46
39613;BME280;25303;48.896;13.342;2024-02-26T08:15:32;91278.75;;;7.21;45.39
39613;BME280;25303;48.896;13.342;2024-02-26T08:25:37;91286.56;;;7.43;45.04
39613;BME280;25303;48.896;13.342;2024-02-26T08:35:40;91294.06;;;7.59;44.63
39613;BME280;25303;48.896;13.342;2024-02-26T08:45:45;91300.91;;;8.04;43.36
39613;BME280;25303;48.896;13.342;2024-02-26T08:55:48;91307.38;;;8.51;43.34
39613;BME280;25303;48.896;13.342;2024-02-26T09:05:52;91306.53;;;8.94;42.51
39613;BME280;25303;48.896;13.342;2024-02-26T09:15:55;91313.91;;;9.26;42.45
39613;BME280;25303;48.896;13.342;2024-02-26T09:26:00;91307.94;;;9.89;42.50
39613;BME280;25303;48.896;13.342;2024-02-26T09:36:04;91320.81;;;10.38;42.04
39613;BME280;25303;48.896;13.342;2024-02-26T09:46:09;91327.69;;;10.92;40.23
39613;BME280;25303;48.896;13.342;2024-02-26T09:56:12;91340.59;;;11.60;39.13
39613;BME280;25303;48.896;13.342;2024-02-26T10:06:17;91346.13;;;11.70;38.85
39613;BME280;25303;48.896;13.342;2024-02-26T10:16:21;91334.38;;;12.01;38.34
39613;BME280;25303;48.896;13.342;2024-02-26T10:26:25;91333.59;;;12.07;37.68
39613;BME280;25303;48.896;13.342;2024-02-26T10:36:33;91326.78;;;12.20;37.38
39613;BME280;25303;48.896;13.342;2024-02-26T10:46:50;91326.06;;;12.51;37.70
39613;BME280;25303;48.896;13.342;2024-02-26T10:56:56;91332.00;;;12.06;37.18
39613;BME280;25303;48.896;13.342;2024-02-26T11:07:00;91335.78;;;11.77;35.94
39613;BME280;25303;48.896;13.342;2024-02-26T11:17:04;91340.34;;;11.95;37.29
39613;BME280;25303;48.896;13.342;2024-02-26T11:27:11;91325.63;;;12.09;36.94
39613;BME280;25303;48.896;13.342;2024-02-26T11:37:16;91325.22;;;12.12;36.55
39613;BME280;25303;48.896;13.342;2024-02-26T11:47:22;91330.78;;;11.95;35.97
39613;BME280;25303;48.896;13.342;2024-02-26T11:57:26;91328.25;;;11.82;35.67
39613;BME280;25303;48.896;13.342;2024-02-26T12:07:34;91328.06;;;11.77;34.72
39613;BME280;25303;48.896;13.342;2024-02-26T12:17:38;91325.31;;;11.65;34.56
39613;BME280;25303;48.896;13.342;2024-02-26T12:27:42;91324.72;;;11.63;34.57
39613;BME280;25303;48.896;13.342;2024-02-26T12:37:46;91329.50;;;11.66;34.58
39613;BME280;25303;48.896;13.342;2024-02-26T12:47:50;91335.84;;;11.50;35.06
39613;BME280;25303;48.896;13.342;2024-02-26T12:57:54;91335.63;;;11.38;35.41
39613;BME280;25303;48.896;13.342;2024-02-26T13:07:58;91335.84;;;11.36;35.62
39613;BME280;25303;48.896;13.342;2024-02-26T13:18:09;91336.63;;;11.23;36.21
39613;BME280;25303;48.896;13.342;2024-02-26T13:28:15;91345.13;;;11.17;36.29
39613;BME280;25303;48.896;13.342;2024-02-26T13:38:19;91352.69;;;11.12;36.00
39613;BME280;25303;48.896;13.342;2024-02-26T13:48:24;91363.38;;;11.29;35.98
39613;BME280;25303;48.896;13.342;2024-02-26T13:58:28;91369.91;;;11.72;35.58
39613;BME280;25303;48.896;13.342;2024-02-26T14:08:32;91361.50;;;12.24;35.00
39613;BME280;25303;48.896;13.342;2024-02-26T14:18:35;91358.03;;;12.50;34.58
39613;BME280;25303;48.896;13.342;2024-02-26T14:28:40;91355.75;;;12.74;33.86
39613;BME280;25303;48.896;13.342;2024-02-26T14:38:43;91374.06;;;12.66;32.69
39613;BME280;25303;48.896;13.342;2024-02-26T14:48:47;91384.22;;;12.54;33.45
39613;BME280;25303;48.896;13.342;2024-02-26T14:58:50;91392.97;;;12.53;33.21
39613;BME280;25303;48.896;13.342;2024-02-26T15:08:55;91388.25;;;12.43;33.61
39613;BME280;25303;48.896;13.342;2024-02-26T15:18:58;91401.81;;;12.18;34.05
39613;BME280;25303;48.896;13.342;2024-02-26T15:29:03;91411.56;;;12.03;34.50
39613;BME280;25303;48.896;13.342;2024-02-26T15:39:06;91406.41;;;11.89;35.15
39613;BME280;25303;48.896;13.342;2024-02-26T15:49:11;91428.44;;;11.72;35.52
39613;BME280;25303;48.896;13.342;2024-02-26T15:59:17;91441.28;;;11.38;35.70
39613;BME280;25303;48.896;13.342;2024-02-26T16:09:22;91463.22;;;11.14;36.56
39613;BME280;25303;48.896;13.342;2024-02-26T16:19:25;91476.06;;;11.00;36.96
39613;BME280;25303;48.896;13.342;2024-02-26T16:29:30;91492.34;;;10.59;38.30
39613;BME280;25303;48.896;13.342;2024-02-26T16:39:35;91501.88;;;10.08;38.59
39613;BME280;25303;48.896;13.342;2024-02-26T16:49:40;91510.13;;;9.75;39.52
39613;BME280;25303;48.896;13.342;2024-02-26T16:59:43;91511.84;;;9.68;40.18
39613;BME280;25303;48.896;13.342;2024-02-26T17:09:47;91531.25;;;9.49;40.97
39613;BME280;25303;48.896;13.342;2024-02-26T17:19:50;91535.00;;;9.31;41.61
39613;BME280;25303;48.896;13.342;2024-02-26T17:29:55;91546.03;;;9.10;42.68
39613;BME280;25303;48.896;13.342;2024-02-26T17:39:58;91536.88;;;8.71;43.99
39613;BME280;25303;48.896;13.342;2024-02-26T17:50:03;91537.97;;;8.38;45.01
39613;BME280;25303;48.896;13.342;2024-02-26T18:00:07;91534.09;;;8.27;45.28
39613;BME280;25303;48.896;13.342;2024-02-26T18:10:12;91544.25;;;7.97;46.62
39613;BME280;25303;48.896;13.342;2024-02-26T18:20:16;91559.88;;;7.87;46.71
39613;BME280;25303;48.896;13.342;2024-02-26T18:30:20;91580.50;;;7.71;47.61
39613;BME280;25303;48.896;13.342;2024-02-26T18:40:23;91589.31;;;7.91;46.76
39613;BME280;25303;48.896;13.342;2024-02-26T18:50:28;91589.72;;;8.03;46.35
39613;BME280;25303;48.896;13.342;2024-02-26T19:00:31;91594.28;;;7.93;46.81
39613;BME280;25303;48.896;13.342;2024-02-26T19:10:35;91597.09;;;7.83;46.75
39613;BME280;25303;48.896;13.342;2024-02-26T19:20:39;91592.09;;;7.58;47.66
39613;BME280;25303;48.896;13.342;2024-02-26T19:30:43;91605.94;;;7.49;48.36
39613;BME280;25303;48.896;13.342;2024-02-26T19:40:46;91606.66;;;7.35;48.68
39613;BME280;25303;48.896;13.342;2024-02-26T19:50:51;91613.97;;;7.38;48.51
39613;BME280;25303;48.896;13.342;2024-02-26T20:00:56;91621.94;;;7.51;47.49
39613;BME280;25303;48.896;13.342;2024-02-26T20:11:00;91624.84;;;7.40;47.70
39613;BME280;25303;48.896;13.342;2024-02-26T20:21:04;91613.03;;;7.39;47.32
39613;BME280;25303;48.896;13.342;2024-02-26T20:31:08;91614.28;;;7.43;46.40
39613;BME280;25303;48.896;13.342;2024-02-26T20:41:12;91627.34;;;7.56;46.05
39613;BME280;25303;48.896;13.342;2024-02-26T20:51:19;91657.09;;;7.89;45.34
39613;BME280;25303;48.896;13.342;2024-02-26T21:01:22;91661.25;;;7.90;44.81
39613;BME280;25303;48.896;13.342;2024-02-26T21:11:26;91686.34;;;7.71;44.39
39613;BME280;25303;48.896;13.342;2024-02-26T21:21:30;91695.84;;;7.54;44.97
39613;BME280;25303;48.896;13.342;2024-02-26T21:31:36;91699.69;;;7.58;44.83
39613;BME280;25303;48.896;13.342;2024-02-26T21:41:40;91690.06;;;7.21;46.36
39613;BME280;25303;48.896;13.342;2024-02-26T21:51:45;91700.38;;;7.44;46.34
39613;BME280;25303;48.896;13.342;2024-02-26T22:01:49;91705.19;;;7.39;46.38
39613;BME280;25303;48.896;13.342;2024-02-26T22:11:53;91710.53;;;7.21;46.87
39613;BME280;25303;48.896;13.342;2024-02-26T22:21:56;91720.66;;;7.06;46.97
39613;BME280;25303;48.896;13.342;2024-02-26T22:32:01;91725.50;;;6.84;47.07
39613;BME280;25303;48.896;13.342;2024-02-26T22:42:04;91710.16;;;6.67;47.04
39613;BME280;25303;48.896;13.342;2024-02-26T22:52:09;91732.53;;;6.49;47.34
39613;BME280;25303;48.896;13.342;2024-02-26T23:02:12;91741.66;;;6.43;47.32
39613;BME280;25303;48.896;13.342;2024-02-26T23:12:17;91754.72;;;6.32;47.01
39613;BME280;25303;48.896;13.342;2024-02-26T23:22:20;91769.91;;;6.17;46.95
39613;BME280;25303;48.896;13.342;2024-02-26T23:32:25;91771.81;;;6.15;47.02
39613;BME280;25303;48.896;13.342;2024-02-26T23:42:28;91784.28;;;6.18;46.96
39613;BME280;25303;48.896;13.342;2024-02-26T23:52:32;91797.34;;;6.15;46.89
